sensor_id;sensor_type;location;lat;lon;timestamp;P1;durP1;ratioP1;P2;durP2;ratioP2
25279;SDS011;13225;47.804;12.116;2022-10-22T00:02:04;7.47;;;2.88;;
25279;SDS011;13225;47.804;12.116;2022-10-22T00:04:32;8.13;;;2.47;;
25279;SDS011;13225;47.804;12.116;2022-10-22T00:06:57;3.53;;;2.70;;
25279;SDS011;13225;47.804;12.116;2022-10-22T00:09:23;4.68;;;2.75;;
25279;SDS011;13225;47.804;12.116;2022-10-22T00:11:49;6.95;;;3.60;;
25279;SDS011;13225;47.804;12.116;2022-10-22T00:14:15;6.70;;;6.05;;
25279;SDS011;13225;47.804;12.116;2022-10-22T00:16:40;6.57;;;2.80;;
25279;SDS011;13225;47.804;12.116;2022-10-22T00:19:06;6.30;;;2.70;;
25279;SDS011;13225;47.804;12.116;2022-10-22T00:21:33;4.60;;;2.40;;
25279;SDS011;13225;47.804;12.116;2022-10-22T00:23:59;4.45;;;3.00;;
25279;SDS011;13225;47.804;12.116;2022-10-22T00:26:25;8.35;;;3.65;;
25279;SDS011;13225;47.804;12.116;2022-10-22T00:28:51;4.85;;;4.00;;
25279;SDS011;13225;47.804;12.116;2022-10-22T00:31:17;4.75;;;3.00;;
25279;SDS011;13225;47.804;12.116;2022-10-22T00:33:45;6.53;;;3.35;;
25279;SDS011;13225;47.804;12.116;2022-10-22T00:36:12;4.85;;;3.25;;
25279;SDS011;13225;47.804;12.116;2022-10-22T00:38:38;7.22;;;3.28;;
25279;SDS011;13225;47.804;12.116;2022-10-22T00:41:03;4.32;;;3.00;;
25279;SDS011;13225;47.804;12.116;2022-10-22T00:43:29;8.05;;;3.55;;
25279;SDS011;13225;47.804;12.116;2022-10-22T00:45:55;5.43;;;2.85;;
25279;SDS011;13225;47.804;12.116;2022-10-22T00:48:22;5.10;;;2.85;;
25279;SDS011;13225;47.804;12.116;2022-10-22T00:50:53;3.90;;;2.40;;
25279;SDS011;13225;47.804;12.116;2022-10-22T00:53:31;4.72;;;2.55;;
25279;SDS011;13225;47.804;12.116;2022-10-22T00:56:01;4.28;;;2.42;;
25279;SDS011;13225;47.804;12.116;2022-10-22T00:58:28;4.05;;;2.90;;
25279;SDS011;13225;47.804;12.116;2022-10-22T01:00:58;7.07;;;2.78;;
25279;SDS011;13225;47.804;12.116;2022-10-22T01:03:24;5.97;;;3.00;;
25279;SDS011;13225;47.804;12.116;2022-10-22T01:05:53;4.05;;;2.63;;
25279;SDS011;13225;47.804;12.116;2022-10-22T01:16:42;4.53;;;3.22;;
25279;SDS011;13225;47.804;12.116;2022-10-22T01:21:55;9.43;;;3.38;;
25279;SDS011;13225;47.804;12.116;2022-10-22T01:24:46;7.88;;;3.17;;
25279;SDS011;13225;47.804;12.116;2022-10-22T01:27:29;5.25;;;3.15;;
25279;SDS011;13225;47.804;12.116;2022-10-22T01:30:05;5.93;;;3.22;;
25279;SDS011;13225;47.804;12.116;2022-10-22T01:32:34;4.13;;;2.63;;
25279;SDS011;13225;47.804;12.116;2022-10-22T01:35:08;5.30;;;2.95;;
25279;SDS011;13225;47.804;12.116;2022-10-22T01:37:38;4.80;;;3.50;;
25279;SDS011;13225;47.804;12.116;2022-10-22T01:40:09;7.22;;;2.95;;
25279;SDS011;13225;47.804;12.116;2022-10-22T01:42:35;6.82;;;3.42;;
25279;SDS011;13225;47.804;12.116;2022-10-22T01:45:01;9.85;;;3.10;;
25279;SDS011;13225;47.804;12.116;2022-10-22T01:56:03;6.75;;;3.40;;
25279;SDS011;13225;47.804;12.116;2022-10-22T02:04:24;8.05;;;4.47;;
25279;SDS011;13225;47.804;12.116;2022-10-22T02:06:47;10.13;;;3.40;;
25279;SDS011;13225;47.804;12.116;2022-10-22T02:09:17;8.07;;;3.80;;
25279;SDS011;13225;47.804;12.116;2022-10-22T02:11:44;10.82;;;4.03;;
25279;SDS011;13225;47.804;12.116;2022-10-22T02:14:11;7.55;;;3.63;;
25279;SDS011;13225;47.804;12.116;2022-10-22T02:16:42;4.90;;;3.67;;
25279;SDS011;13225;47.804;12.116;2022-10-22T02:19:21;5.57;;;3.55;;
25279;SDS011;13225;47.804;12.116;2022-10-22T02:21:50;10.95;;;3.95;;
25279;SDS011;13225;47.804;12.116;2022-10-22T02:24:17;6.20;;;3.97;;
25279;SDS011;13225;47.804;12.116;2022-10-22T02:26:54;4.63;;;3.72;;
25279;SDS011;13225;47.804;12.116;2022-10-22T02:30:15;8.48;;;3.78;;
25279;SDS011;13225;47.804;12.116;2022-10-22T02:32:20;7.00;;;3.35;;
25279;SDS011;13225;47.804;12.116;2022-10-22T02:34:50;6.45;;;3.83;;
25279;SDS011;13225;47.804;12.116;2022-10-22T02:37:17;8.10;;;3.60;;
25279;SDS011;13225;47.804;12.116;2022-10-22T02:39:43;5.80;;;3.53;;
25279;SDS011;13225;47.804;12.116;2022-10-22T02:42:09;3.83;;;2.97;;
25279;SDS011;13225;47.804;12.116;2022-10-22T02:44:36;5.68;;;3.50;;
25279;SDS011;13225;47.804;12.116;2022-10-22T02:47:02;5.45;;;3.42;;
25279;SDS011;13225;47.804;12.116;2022-10-22T02:49:28;5.18;;;2.70;;
25279;SDS011;13225;47.804;12.116;2022-10-22T02:51:53;8.05;;;2.75;;
25279;SDS011;13225;47.804;12.116;2022-10-22T02:54:19;5.07;;;2.80;;
25279;SDS011;13225;47.804;12.116;2022-10-22T02:56:45;3.80;;;2.17;;
25279;SDS011;13225;47.804;12.116;2022-10-22T02:59:11;4.70;;;2.17;;
25279;SDS011;13225;47.804;12.116;2022-10-22T03:01:36;4.07;;;1.90;;
25279;SDS011;13225;47.804;12.116;2022-10-22T03:04:02;5.80;;;2.25;;
25279;SDS011;13225;47.804;12.116;2022-10-22T03:06:29;3.97;;;2.10;;
25279;SDS011;13225;47.804;12.116;2022-10-22T03:08:54;4.00;;;2.00;;
25279;SDS011;13225;47.804;12.116;2022-10-22T03:11:20;7.75;;;2.13;;
25279;SDS011;13225;47.804;12.116;2022-10-22T03:13:46;8.48;;;2.25;;
25279;SDS011;13225;47.804;12.116;2022-10-22T03:16:11;6.30;;;2.65;;
25279;SDS011;13225;47.804;12.116;2022-10-22T03:18:37;8.75;;;3.20;;
25279;SDS011;13225;47.804;12.116;2022-10-22T03:21:11;8.25;;;3.10;;
25279;SDS011;13225;47.804;12.116;2022-10-22T03:23:44;8.40;;;3.97;;
25279;SDS011;13225;47.804;12.116;2022-10-22T03:26:11;6.32;;;3.70;;
25279;SDS011;13225;47.804;12.116;2022-10-22T03:28:38;5.72;;;3.25;;
25279;SDS011;13225;47.804;12.116;2022-10-22T03:31:06;6.78;;;3.08;;
25279;SDS011;13225;47.804;12.116;2022-10-22T03:33:32;5.18;;;3.08;;
25279;SDS011;13225;47.804;12.116;2022-10-22T03:35:58;5.38;;;2.95;;
25279;SDS011;13225;47.804;12.116;2022-10-22T03:38:24;4.35;;;2.03;;
25279;SDS011;13225;47.804;12.116;2022-10-22T03:40:50;2.47;;;1.95;;
25279;SDS011;13225;47.804;12.116;2022-10-22T03:43:16;8.13;;;2.80;;
25279;SDS011;13225;47.804;12.116;2022-10-22T03:45:42;5.45;;;2.20;;
25279;SDS011;13225;47.804;12.116;2022-10-22T03:48:08;4.38;;;2.28;;
25279;SDS011;13225;47.804;12.116;2022-10-22T03:50:33;3.75;;;2.50;;
25279;SDS011;13225;47.804;12.116;2022-10-22T03:52:59;8.32;;;2.38;;
25279;SDS011;13225;47.804;12.116;2022-10-22T03:55:25;4.10;;;2.30;;
25279;SDS011;13225;47.804;12.116;2022-10-22T03:57:51;4.00;;;2.60;;
25279;SDS011;13225;47.804;12.116;2022-10-22T04:00:16;5.07;;;2.47;;
25279;SDS011;13225;47.804;12.116;2022-10-22T04:02:42;6.05;;;2.40;;
25279;SDS011;13225;47.804;12.116;2022-10-22T04:05:08;5.68;;;2.47;;
25279;SDS011;13225;47.804;12.116;2022-10-22T04:07:33;5.20;;;2.35;;
25279;SDS011;13225;47.804;12.116;2022-10-22T04:09:59;3.60;;;1.83;;
25279;SDS011;13225;47.804;12.116;2022-10-22T04:12:25;5.95;;;3.30;;
25279;SDS011;13225;47.804;12.116;2022-10-22T04:14:50;5.85;;;5.22;;
25279;SDS011;13225;47.804;12.116;2022-10-22T04:17:16;4.90;;;3.10;;
25279;SDS011;13225;47.804;12.116;2022-10-22T04:19:42;5.32;;;3.13;;
25279;SDS011;13225;47.804;12.116;2022-10-22T04:22:07;4.93;;;3.22;;
25279;SDS011;13225;47.804;12.116;2022-10-22T04:24:33;3.55;;;2.08;;
25279;SDS011;13225;47.804;12.116;2022-10-22T04:26:58;6.85;;;1.95;;
25279;SDS011;13225;47.804;12.116;2022-10-22T04:29:24;3.17;;;1.90;;
25279;SDS011;13225;47.804;12.116;2022-10-22T04:31:50;4.95;;;2.25;;
25279;SDS011;13225;47.804;12.116;2022-10-22T04:34:16;2.70;;;2.50;;
25279;SDS011;13225;47.804;12.116;2022-10-22T04:36:41;5.45;;;3.10;;
25279;SDS011;13225;47.804;12.116;2022-10-22T04:39:07;3.60;;;1.67;;
25279;SDS011;13225;47.804;12.116;2022-10-22T04:41:34;2.03;;;1.83;;
25279;SDS011;13225;47.804;12.116;2022-10-22T04:44:01;3.00;;;1.55;;
25279;SDS011;13225;47.804;12.116;2022-10-22T04:46:28;3.83;;;1.90;;
25279;SDS011;13225;47.804;12.116;2022-10-22T04:48:54;19.42;;;8.48;;
25279;SDS011;13225;47.804;12.116;2022-10-22T04:51:21;3.90;;;1.55;;
25279;SDS011;13225;47.804;12.116;2022-10-22T04:53:48;6.45;;;3.15;;
25279;SDS011;13225;47.804;12.116;2022-10-22T04:56:18;5.75;;;2.97;;
25279;SDS011;13225;47.804;12.116;2022-10-22T04:58:47;10.00;;;6.20;;
25279;SDS011;13225;47.804;12.116;2022-10-22T05:01:14;4.47;;;2.60;;
25279;SDS011;13225;47.804;12.116;2022-10-22T05:03:42;3.88;;;2.30;;
25279;SDS011;13225;47.804;12.116;2022-10-22T05:06:09;3.80;;;2.35;;
25279;SDS011;13225;47.804;12.116;2022-10-22T05:08:35;5.30;;;2.25;;
25279;SDS011;13225;47.804;12.116;2022-10-22T05:11:00;6.10;;;2.42;;
25279;SDS011;13225;47.804;12.116;2022-10-22T05:13:35;5.38;;;2.38;;
25279;SDS011;13225;47.804;12.116;2022-10-22T05:16:00;4.47;;;2.40;;
25279;SDS011;13225;47.804;12.116;2022-10-22T05:18:26;6.57;;;1.90;;
25279;SDS011;13225;47.804;12.116;2022-10-22T05:20:52;3.83;;;1.80;;
25279;SDS011;13225;47.804;12.116;2022-10-22T05:23:17;3.85;;;1.55;;
25279;SDS011;13225;47.804;12.116;2022-10-22T05:25:43;3.42;;;1.60;;
25279;SDS011;13225;47.804;12.116;2022-10-22T05:28:08;4.82;;;2.63;;
25279;SDS011;13225;47.804;12.116;2022-10-22T05:30:34;3.15;;;1.70;;
25279;SDS011;13225;47.804;12.116;2022-10-22T05:33:00;4.63;;;1.50;;
25279;SDS011;13225;47.804;12.116;2022-10-22T05:35:25;3.92;;;1.52;;
25279;SDS011;13225;47.804;12.116;2022-10-22T05:37:51;4.72;;;1.98;;
25279;SDS011;13225;47.804;12.116;2022-10-22T05:40:17;3.72;;;1.35;;
25279;SDS011;13225;47.804;12.116;2022-10-22T05:42:43;4.07;;;2.00;;
25279;SDS011;13225;47.804;12.116;2022-10-22T05:45:08;4.28;;;2.08;;
25279;SDS011;13225;47.804;12.116;2022-10-22T05:47:34;3.05;;;1.48;;
25279;SDS011;13225;47.804;12.116;2022-10-22T05:49:59;3.03;;;1.42;;
25279;SDS011;13225;47.804;12.116;2022-10-22T05:52:25;2.55;;;1.40;;
25279;SDS011;13225;47.804;12.116;2022-10-22T05:54:51;1.25;;;0.80;;
25279;SDS011;13225;47.804;12.116;2022-10-22T05:57:16;1.90;;;0.50;;
25279;SDS011;13225;47.804;12.116;2022-10-22T05:59:42;2.88;;;0.50;;
25279;SDS011;13225;47.804;12.116;2022-10-22T06:02:08;1.02;;;0.45;;
25279;SDS011;13225;47.804;12.116;2022-10-22T06:04:33;1.77;;;0.60;;
25279;SDS011;13225;47.804;12.116;2022-10-22T06:06:59;2.22;;;1.30;;
25279;SDS011;13225;47.804;12.116;2022-10-22T06:09:26;1.15;;;0.77;;
25279;SDS011;13225;47.804;12.116;2022-10-22T06:11:55;1.60;;;0.90;;
25279;SDS011;13225;47.804;12.116;2022-10-22T06:14:22;1.20;;;0.63;;
25279;SDS011;13225;47.804;12.116;2022-10-22T06:16:49;0.50;;;0.50;;
25279;SDS011;13225;47.804;12.116;2022-10-22T06:19:16;2.10;;;0.30;;
25279;SDS011;13225;47.804;12.116;2022-10-22T06:21:43;0.90;;;0.50;;
25279;SDS011;13225;47.804;12.116;2022-10-22T06:24:09;0.65;;;0.55;;
25279;SDS011;13225;47.804;12.116;2022-10-22T06:26:36;1.95;;;0.70;;
25279;SDS011;13225;47.804;12.116;2022-10-22T06:29:02;1.17;;;0.80;;
25279;SDS011;13225;47.804;12.116;2022-10-22T06:31:28;2.40;;;0.90;;
25279;SDS011;13225;47.804;12.116;2022-10-22T06:34:00;4.03;;;1.35;;
25279;SDS011;13225;47.804;12.116;2022-10-22T06:36:30;2.30;;;0.93;;
25279;SDS011;13225;47.804;12.116;2022-10-22T06:38:56;1.92;;;0.98;;
25279;SDS011;13225;47.804;12.116;2022-10-22T06:41:22;2.53;;;0.93;;
25279;SDS011;13225;47.804;12.116;2022-10-22T06:43:48;1.70;;;0.80;;
25279;SDS011;13225;47.804;12.116;2022-10-22T06:46:16;1.98;;;0.80;;
25279;SDS011;13225;47.804;12.116;2022-10-22T06:48:47;1.98;;;1.00;;
25279;SDS011;13225;47.804;12.116;2022-10-22T06:51:13;1.92;;;0.90;;
25279;SDS011;13225;47.804;12.116;2022-10-22T06:53:39;1.65;;;1.00;;
25279;SDS011;13225;47.804;12.116;2022-10-22T06:56:06;1.75;;;1.00;;
25279;SDS011;13225;47.804;12.116;2022-10-22T06:58:33;0.90;;;0.90;;
25279;SDS011;13225;47.804;12.116;2022-10-22T07:01:03;1.30;;;0.90;;
25279;SDS011;13225;47.804;12.116;2022-10-22T07:03:30;2.53;;;1.20;;
25279;SDS011;13225;47.804;12.116;2022-10-22T07:05:59;3.08;;;1.30;;
25279;SDS011;13225;47.804;12.116;2022-10-22T07:08:26;1.75;;;1.30;;
25279;SDS011;13225;47.804;12.116;2022-10-22T07:10:52;3.47;;;1.52;;
25279;SDS011;13225;47.804;12.116;2022-10-22T07:13:18;1.48;;;1.10;;
25279;SDS011;13225;47.804;12.116;2022-10-22T07:15:43;2.03;;;1.30;;
25279;SDS011;13225;47.804;12.116;2022-10-22T07:18:09;2.92;;;1.05;;
25279;SDS011;13225;47.804;12.116;2022-10-22T07:20:34;2.60;;;0.93;;
25279;SDS011;13225;47.804;12.116;2022-10-22T07:23:00;3.55;;;1.20;;
25279;SDS011;13225;47.804;12.116;2022-10-22T07:25:26;2.22;;;1.45;;
25279;SDS011;13225;47.804;12.116;2022-10-22T07:27:51;1.70;;;1.25;;
25279;SDS011;13225;47.804;12.116;2022-10-22T07:30:17;4.90;;;1.77;;
25279;SDS011;13225;47.804;12.116;2022-10-22T07:32:43;3.53;;;1.50;;
25279;SDS011;13225;47.804;12.116;2022-10-22T07:35:08;1.00;;;1.00;;
25279;SDS011;13225;47.804;12.116;2022-10-22T07:37:34;2.10;;;1.13;;
25279;SDS011;13225;47.804;12.116;2022-10-22T07:40:00;3.08;;;1.30;;
25279;SDS011;13225;47.804;12.116;2022-10-22T07:42:26;3.38;;;1.13;;
25279;SDS011;13225;47.804;12.116;2022-10-22T07:44:51;2.97;;;1.33;;
25279;SDS011;13225;47.804;12.116;2022-10-22T07:47:17;1.85;;;1.30;;
25279;SDS011;13225;47.804;12.116;2022-10-22T07:49:42;2.88;;;1.08;;
25279;SDS011;13225;47.804;12.116;2022-10-22T07:52:08;2.05;;;1.20;;
25279;SDS011;13225;47.804;12.116;2022-10-22T07:54:34;2.40;;;1.40;;
25279;SDS011;13225;47.804;12.116;2022-10-22T07:56:59;2.28;;;1.02;;
25279;SDS011;13225;47.804;12.116;2022-10-22T07:59:25;2.17;;;1.08;;
25279;SDS011;13225;47.804;12.116;2022-10-22T08:01:50;1.42;;;1.10;;
25279;SDS011;13225;47.804;12.116;2022-10-22T08:04:16;1.20;;;1.10;;
25279;SDS011;13225;47.804;12.116;2022-10-22T08:06:42;2.50;;;1.85;;
25279;SDS011;13225;47.804;12.116;2022-10-22T08:09:07;1.63;;;1.35;;
25279;SDS011;13225;47.804;12.116;2022-10-22T08:11:33;1.58;;;1.30;;
25279;SDS011;13225;47.804;12.116;2022-10-22T08:13:58;1.70;;;1.60;;
25279;SDS011;13225;47.804;12.116;2022-10-22T08:16:24;3.50;;;1.70;;
25279;SDS011;13225;47.804;12.116;2022-10-22T08:18:50;3.08;;;1.80;;
25279;SDS011;13225;47.804;12.116;2022-10-22T08:21:16;3.22;;;1.60;;
25279;SDS011;13225;47.804;12.116;2022-10-22T08:23:41;2.25;;;1.63;;
25279;SDS011;13225;47.804;12.116;2022-10-22T08:26:08;1.92;;;1.40;;
25279;SDS011;13225;47.804;12.116;2022-10-22T08:28:34;5.47;;;3.08;;
25279;SDS011;13225;47.804;12.116;2022-10-22T08:31:02;3.00;;;2.45;;
25279;SDS011;13225;47.804;12.116;2022-10-22T08:33:31;5.60;;;2.90;;
25279;SDS011;13225;47.804;12.116;2022-10-22T08:35:57;4.80;;;1.58;;
25279;SDS011;13225;47.804;12.116;2022-10-22T08:38:23;1.23;;;1.00;;
25279;SDS011;13225;47.804;12.116;2022-10-22T08:40:50;1.85;;;1.40;;
25279;SDS011;13225;47.804;12.116;2022-10-22T08:49:03;1.95;;;1.40;;
25279;SDS011;13225;47.804;12.116;2022-10-22T08:51:36;3.60;;;1.40;;
25279;SDS011;13225;47.804;12.116;2022-10-22T08:54:20;3.13;;;1.67;;
25279;SDS011;13225;47.804;12.116;2022-10-22T08:57:01;6.10;;;3.90;;
25279;SDS011;13225;47.804;12.116;2022-10-22T09:02:19;4.85;;;2.38;;
25279;SDS011;13225;47.804;12.116;2022-10-22T09:07:51;3.70;;;1.80;;
25279;SDS011;13225;47.804;12.116;2022-10-22T09:10:18;3.15;;;2.50;;
25279;SDS011;13225;47.804;12.116;2022-10-22T09:12:48;6.57;;;2.70;;
25279;SDS011;13225;47.804;12.116;2022-10-22T09:15:15;4.15;;;2.85;;
25279;SDS011;13225;47.804;12.116;2022-10-22T09:20:44;8.00;;;3.85;;
25279;SDS011;13225;47.804;12.116;2022-10-22T09:25:57;5.18;;;3.25;;
25279;SDS011;13225;47.804;12.116;2022-10-22T09:28:24;4.90;;;2.40;;
25279;SDS011;13225;47.804;12.116;2022-10-22T09:30:50;5.45;;;2.22;;
25279;SDS011;13225;47.804;12.116;2022-10-22T09:33:16;3.88;;;1.92;;
25279;SDS011;13225;47.804;12.116;2022-10-22T09:35:51;3.17;;;2.25;;
25279;SDS011;13225;47.804;12.116;2022-10-22T09:38:20;4.85;;;2.40;;
25279;SDS011;13225;47.804;12.116;2022-10-22T09:40:57;2.55;;;2.00;;
25279;SDS011;13225;47.804;12.116;2022-10-22T09:43:24;4.45;;;2.33;;
25279;SDS011;13225;47.804;12.116;2022-10-22T09:45:57;3.30;;;2.28;;
25279;SDS011;13225;47.804;12.116;2022-10-22T09:50:58;5.60;;;4.30;;
25279;SDS011;13225;47.804;12.116;2022-10-22T09:53:36;5.15;;;4.63;;
25279;SDS011;13225;47.804;12.116;2022-10-22T09:56:07;5.47;;;4.13;;
25279;SDS011;13225;47.804;12.116;2022-10-22T09:58:45;4.85;;;3.75;;
25279;SDS011;13225;47.804;12.116;2022-10-22T10:01:15;5.70;;;3.53;;
25279;SDS011;13225;47.804;12.116;2022-10-22T10:03:43;6.78;;;5.57;;
25279;SDS011;13225;47.804;12.116;2022-10-22T10:06:08;4.97;;;4.53;;
25279;SDS011;13225;47.804;12.116;2022-10-22T10:08:34;5.93;;;2.85;;
25279;SDS011;13225;47.804;12.116;2022-10-22T10:11:10;4.90;;;4.10;;
25279;SDS011;13225;47.804;12.116;2022-10-22T10:14:05;3.28;;;2.33;;
25279;SDS011;13225;47.804;12.116;2022-10-22T10:27:24;8.65;;;2.80;;
25279;SDS011;13225;47.804;12.116;2022-10-22T10:30:09;5.68;;;3.10;;
25279;SDS011;13225;47.804;12.116;2022-10-22T10:35:22;3.85;;;3.00;;
25279;SDS011;13225;47.804;12.116;2022-10-22T10:40:43;4.30;;;3.17;;
25279;SDS011;13225;47.804;12.116;2022-10-22T10:54:03;6.57;;;4.10;;
25279;SDS011;13225;47.804;12.116;2022-10-22T11:07:21;6.43;;;3.33;;
25279;SDS011;13225;47.804;12.116;2022-10-22T11:09:57;4.90;;;3.10;;
25279;SDS011;13225;47.804;12.116;2022-10-22T11:12:32;8.65;;;4.97;;
25279;SDS011;13225;47.804;12.116;2022-10-22T11:23:21;5.27;;;4.03;;
25279;SDS011;13225;47.804;12.116;2022-10-22T11:25:53;4.82;;;3.50;;
25279;SDS011;13225;47.804;12.116;2022-10-22T11:28:31;7.18;;;3.58;;
25279;SDS011;13225;47.804;12.116;2022-10-22T11:31:01;3.35;;;2.58;;
25279;SDS011;13225;47.804;12.116;2022-10-22T11:33:32;6.20;;;3.17;;
25279;SDS011;13225;47.804;12.116;2022-10-22T11:36:09;16.83;;;8.15;;
25279;SDS011;13225;47.804;12.116;2022-10-22T11:38:37;3.47;;;2.67;;
25279;SDS011;13225;47.804;12.116;2022-10-22T11:41:12;5.55;;;4.30;;
25279;SDS011;13225;47.804;12.116;2022-10-22T11:46:43;6.35;;;2.38;;
25279;SDS011;13225;47.804;12.116;2022-10-22T11:49:24;5.07;;;3.38;;
25279;SDS011;13225;47.804;12.116;2022-10-22T11:52:23;4.78;;;2.08;;
25279;SDS011;13225;47.804;12.116;2022-10-22T11:54:56;5.38;;;2.97;;
25279;SDS011;13225;47.804;12.116;2022-10-22T11:57:26;5.53;;;3.40;;
25279;SDS011;13225;47.804;12.116;2022-10-22T12:00:00;3.40;;;3.10;;
25279;SDS011;13225;47.804;12.116;2022-10-22T12:03:01;2.83;;;2.08;;
25279;SDS011;13225;47.804;12.116;2022-10-22T12:05:38;4.07;;;2.25;;
25279;SDS011;13225;47.804;12.116;2022-10-22T12:08:20;3.42;;;2.28;;
25279;SDS011;13225;47.804;12.116;2022-10-22T12:16:26;3.72;;;2.53;;
25279;SDS011;13225;47.804;12.116;2022-10-22T12:19:02;7.63;;;2.47;;
25279;SDS011;13225;47.804;12.116;2022-10-22T12:21:40;4.88;;;2.15;;
25279;SDS011;13225;47.804;12.116;2022-10-22T12:24:09;2.17;;;1.98;;
25279;SDS011;13225;47.804;12.116;2022-10-22T12:26:39;3.10;;;2.20;;
25279;SDS011;13225;47.804;12.116;2022-10-22T12:29:11;4.78;;;2.30;;
25279;SDS011;13225;47.804;12.116;2022-10-22T12:31:40;3.42;;;2.33;;
25279;SDS011;13225;47.804;12.116;2022-10-22T12:34:12;3.92;;;2.28;;
25279;SDS011;13225;47.804;12.116;2022-10-22T12:36:43;5.10;;;2.22;;
25279;SDS011;13225;47.804;12.116;2022-10-22T12:39:15;3.25;;;1.73;;
25279;SDS011;13225;47.804;12.116;2022-10-22T12:41:43;3.60;;;2.00;;
25279;SDS011;13225;47.804;12.116;2022-10-22T12:44:10;3.10;;;1.77;;
25279;SDS011;13225;47.804;12.116;2022-10-22T12:46:40;2.92;;;2.20;;
25279;SDS011;13225;47.804;12.116;2022-10-22T12:49:18;1.90;;;1.60;;
25279;SDS011;13225;47.804;12.116;2022-10-22T12:51:45;2.10;;;1.80;;
25279;SDS011;13225;47.804;12.116;2022-10-22T12:54:31;5.07;;;4.43;;
25279;SDS011;13225;47.804;12.116;2022-10-22T12:56:58;1.98;;;1.77;;
25279;SDS011;13225;47.804;12.116;2022-10-22T12:59:29;4.78;;;1.80;;
25279;SDS011;13225;47.804;12.116;2022-10-22T13:01:59;2.55;;;1.42;;
25279;SDS011;13225;47.804;12.116;2022-10-22T13:09:37;2.28;;;1.30;;
25279;SDS011;13225;47.804;12.116;2022-10-22T13:12:11;2.08;;;1.30;;
25279;SDS011;13225;47.804;12.116;2022-10-22T13:14:40;1.95;;;1.10;;
25279;SDS011;13225;47.804;12.116;2022-10-22T13:22:36;3.20;;;1.50;;
25279;SDS011;13225;47.804;12.116;2022-10-22T13:27:46;1.40;;;1.30;;
25279;SDS011;13225;47.804;12.116;2022-10-22T13:30:22;2.78;;;1.50;;
25279;SDS011;13225;47.804;12.116;2022-10-22T13:33:37;2.22;;;1.77;;
25279;SDS011;13225;47.804;12.116;2022-10-22T13:35:58;3.63;;;2.00;;
25279;SDS011;13225;47.804;12.116;2022-10-22T13:38:25;1.98;;;1.67;;
25279;SDS011;13225;47.804;12.116;2022-10-22T13:40:51;3.22;;;1.40;;
25279;SDS011;13225;47.804;12.116;2022-10-22T13:43:18;1.83;;;1.35;;
25279;SDS011;13225;47.804;12.116;2022-10-22T13:45:44;1.30;;;1.13;;
25279;SDS011;13225;47.804;12.116;2022-10-22T13:48:12;1.83;;;1.30;;
25279;SDS011;13225;47.804;12.116;2022-10-22T13:50:40;1.33;;;1.23;;
25279;SDS011;13225;47.804;12.116;2022-10-22T13:53:08;3.25;;;1.13;;
25279;SDS011;13225;47.804;12.116;2022-10-22T13:55:42;2.40;;;1.60;;
25279;SDS011;13225;47.804;12.116;2022-10-22T13:58:15;2.15;;;1.10;;
25279;SDS011;13225;47.804;12.116;2022-10-22T14:00:43;2.05;;;1.20;;
25279;SDS011;13225;47.804;12.116;2022-10-22T14:03:12;5.63;;;3.17;;
25279;SDS011;13225;47.804;12.116;2022-10-22T14:05:44;10.38;;;3.05;;
25279;SDS011;13225;47.804;12.116;2022-10-22T14:08:11;3.50;;;1.30;;
25279;SDS011;13225;47.804;12.116;2022-10-22T14:10:39;2.05;;;1.27;;
25279;SDS011;13225;47.804;12.116;2022-10-22T14:13:06;0.90;;;0.90;;
25279;SDS011;13225;47.804;12.116;2022-10-22T14:15:34;2.72;;;1.20;;
25279;SDS011;13225;47.804;12.116;2022-10-22T14:17:59;1.70;;;1.38;;
25279;SDS011;13225;47.804;12.116;2022-10-22T14:20:27;3.50;;;1.38;;
25279;SDS011;13225;47.804;12.116;2022-10-22T14:22:55;1.33;;;1.20;;
25279;SDS011;13225;47.804;12.116;2022-10-22T14:25:24;1.52;;;1.05;;
25279;SDS011;13225;47.804;12.116;2022-10-22T14:27:50;4.57;;;1.30;;
25279;SDS011;13225;47.804;12.116;2022-10-22T14:30:18;2.30;;;1.20;;
25279;SDS011;13225;47.804;12.116;2022-10-22T14:32:46;1.23;;;1.08;;
25279;SDS011;13225;47.804;12.116;2022-10-22T14:35:15;1.50;;;1.40;;
25279;SDS011;13225;47.804;12.116;2022-10-22T14:37:44;2.03;;;1.30;;
25279;SDS011;13225;47.804;12.116;2022-10-22T14:40:12;1.20;;;1.08;;
25279;SDS011;13225;47.804;12.116;2022-10-22T14:42:42;1.30;;;1.08;;
25279;SDS011;13225;47.804;12.116;2022-10-22T14:45:20;1.83;;;1.40;;
25279;SDS011;13225;47.804;12.116;2022-10-22T14:47:48;3.08;;;1.20;;
25279;SDS011;13225;47.804;12.116;2022-10-22T14:50:15;1.58;;;1.10;;
25279;SDS011;13225;47.804;12.116;2022-10-22T14:52:41;2.10;;;1.50;;
25279;SDS011;13225;47.804;12.116;2022-10-22T14:55:11;1.45;;;1.35;;
25279;SDS011;13225;47.804;12.116;2022-10-22T14:57:38;2.20;;;1.67;;
25279;SDS011;13225;47.804;12.116;2022-10-22T15:00:05;1.73;;;1.10;;
25279;SDS011;13225;47.804;12.116;2022-10-22T15:02:37;2.33;;;1.48;;
25279;SDS011;13225;47.804;12.116;2022-10-22T15:05:03;3.75;;;1.60;;
25279;SDS011;13225;47.804;12.116;2022-10-22T15:07:29;6.47;;;1.40;;
25279;SDS011;13225;47.804;12.116;2022-10-22T15:09:55;1.75;;;1.42;;
25279;SDS011;13225;47.804;12.116;2022-10-22T15:12:20;1.85;;;1.48;;
25279;SDS011;13225;47.804;12.116;2022-10-22T15:14:46;2.03;;;1.48;;
25279;SDS011;13225;47.804;12.116;2022-10-22T15:17:12;1.80;;;1.38;;
25279;SDS011;13225;47.804;12.116;2022-10-22T15:19:38;3.60;;;2.00;;
25279;SDS011;13225;47.804;12.116;2022-10-22T15:22:04;2.80;;;1.60;;
25279;SDS011;13225;47.804;12.116;2022-10-22T15:24:30;3.38;;;1.75;;
25279;SDS011;13225;47.804;12.116;2022-10-22T15:26:56;5.97;;;2.15;;
25279;SDS011;13225;47.804;12.116;2022-10-22T15:29:21;3.60;;;2.10;;
25279;SDS011;13225;47.804;12.116;2022-10-22T15:31:49;2.72;;;1.77;;
25279;SDS011;13225;47.804;12.116;2022-10-22T15:34:23;3.53;;;1.80;;
25279;SDS011;13225;47.804;12.116;2022-10-22T15:36:56;2.38;;;1.42;;
25279;SDS011;13225;47.804;12.116;2022-10-22T15:39:24;1.55;;;1.45;;
25279;SDS011;13225;47.804;12.116;2022-10-22T15:41:51;3.88;;;1.63;;
25279;SDS011;13225;47.804;12.116;2022-10-22T15:44:21;4.03;;;1.90;;
25279;SDS011;13225;47.804;12.116;2022-10-22T15:46:49;3.15;;;1.65;;
25279;SDS011;13225;47.804;12.116;2022-10-22T15:49:15;2.53;;;1.60;;
25279;SDS011;13225;47.804;12.116;2022-10-22T15:51:42;2.13;;;1.50;;
25279;SDS011;13225;47.804;12.116;2022-10-22T15:54:10;2.70;;;1.70;;
25279;SDS011;13225;47.804;12.116;2022-10-22T15:56:38;1.83;;;1.73;;
25279;SDS011;13225;47.804;12.116;2022-10-22T15:59:03;3.50;;;1.77;;
25279;SDS011;13225;47.804;12.116;2022-10-22T16:01:30;1.70;;;1.60;;
25279;SDS011;13225;47.804;12.116;2022-10-22T16:03:57;2.03;;;1.70;;
25279;SDS011;13225;47.804;12.116;2022-10-22T16:06:45;3.40;;;1.80;;
25279;SDS011;13225;47.804;12.116;2022-10-22T16:09:14;1.80;;;1.50;;
25279;SDS011;13225;47.804;12.116;2022-10-22T16:11:42;2.60;;;1.80;;
25279;SDS011;13225;47.804;12.116;2022-10-22T16:14:12;2.35;;;1.92;;
25279;SDS011;13225;47.804;12.116;2022-10-22T16:16:41;3.33;;;1.90;;
25279;SDS011;13225;47.804;12.116;2022-10-22T16:19:10;3.00;;;1.98;;
25279;SDS011;13225;47.804;12.116;2022-10-22T16:21:36;2.97;;;1.60;;
25279;SDS011;13225;47.804;12.116;2022-10-22T16:24:03;3.85;;;1.77;;
25279;SDS011;13225;47.804;12.116;2022-10-22T16:26:29;4.10;;;2.10;;
25279;SDS011;13225;47.804;12.116;2022-10-22T16:28:55;2.30;;;2.00;;
25279;SDS011;13225;47.804;12.116;2022-10-22T16:31:22;2.53;;;2.00;;
25279;SDS011;13225;47.804;12.116;2022-10-22T16:33:48;2.38;;;2.05;;
25279;SDS011;13225;47.804;12.116;2022-10-22T16:36:15;4.70;;;2.20;;